Terminal Aerodrome Forecast
Issued by NWS Knoxville/Tri Cities, TN

Current Version | Previous Version | Text Only | Print | Product List | Glossary On
Versions: 1 2 3 4 5 6 7 8 9 10 11 12 13 14 15 16 17 18 19 20 21 22 23 24 25 26 27 28 29 30 31 32 33
000
FTUS44 KMRX 282322
TAFTYS
TAF
KTYS 282322Z 2900/2924 VRB04KT P6SM VCSH SCT035 BKN120
     FM290400 VRB03KT P6SM SCT040 BKN100
     FM291400 VRB03KT P6SM VCSH BKN040 OVC120
     FM291900 22007KT P6SM VCTS BKN035CB OVC100=

USA.gov is the U.S. government's official web portal to all federal, state and local government web resources and services.